Terminal Aerodrome Forecast
Issued by NWS

Home | Current Version | Previous Version | Text Only | Print | Product List | Glossary On
Versions: 1 2 3 4 5 6 7 8 9 10 11 12 13 14 15 16 17 18 19 20 21 22
919
FTUS42 KTBW 070254 AAA
TAFRSW
TAF AMD
KRSW 070254Z 0703/0724 33010KT P6SM VCSH SCT008 BKN015 BKN040
      TEMPO 0703/0707 BKN008
     FM070900 33012G17KT P6SM BKN020 BKN100
     FM071300 33015G24KT P6SM SCT020
     FM071600 32015G25KT P6SM FEW030=

USA.gov is the U.S. government's official web portal to all federal, state and local government web resources and services.